createdAt,value
2022-11-23T00:02:42.473Z,7.70
2022-11-23T00:05:31.141Z,7.70
2022-11-23T00:08:19.015Z,7.70
2022-11-23T00:11:06.980Z,7.70
2022-11-23T00:13:55.595Z,7.70
2022-11-23T00:16:43.615Z,7.70
2022-11-23T00:19:33.197Z,7.60
2022-11-23T00:22:21.802Z,7.70
2022-11-23T00:25:10.055Z,7.60
2022-11-23T00:27:58.029Z,7.70
2022-11-23T00:30:49.290Z,7.60
2022-11-23T00:33:37.504Z,7.60
2022-11-23T00:36:27.608Z,7.60
2022-11-23T00:39:15.505Z,7.70
2022-11-23T00:42:03.524Z,7.70
2022-11-23T00:44:51.447Z,7.70
2022-11-23T00:47:39.492Z,7.60
2022-11-23T00:50:27.468Z,7.60
2022-11-23T00:53:16.907Z,7.60
2022-11-23T00:56:05.233Z,7.60
2022-11-23T00:58:53.471Z,7.70
2022-11-23T01:01:41.479Z,7.60
2022-11-23T01:04:29.563Z,7.60
2022-11-23T01:07:17.428Z,7.60
2022-11-23T01:10:08.218Z,7.70
2022-11-23T01:12:56.213Z,7.60
2022-11-23T01:15:49.689Z,7.60
2022-11-23T01:18:37.634Z,7.60
2022-11-23T01:21:26.054Z,7.60
2022-11-23T01:24:14.958Z,7.60
2022-11-23T01:27:04.208Z,7.60
2022-11-23T01:29:52.150Z,7.60
2022-11-23T01:32:40.005Z,7.60
2022-11-23T01:35:28.866Z,7.60
2022-11-23T01:38:18.413Z,7.60
2022-11-23T01:41:06.994Z,7.60
2022-11-23T01:43:56.835Z,7.60
2022-11-23T01:46:44.715Z,7.60
2022-11-23T01:49:35.058Z,7.60
2022-11-23T01:52:24.615Z,7.70
2022-11-23T01:55:12.491Z,7.60
2022-11-23T01:58:00.511Z,7.60
2022-11-23T02:00:50.117Z,7.60
2022-11-23T02:03:38.646Z,7.60
2022-11-23T02:06:26.541Z,7.50
2022-11-23T02:09:14.827Z,7.60
2022-11-23T02:12:02.719Z,7.50
2022-11-23T02:14:50.846Z,7.60
2022-11-23T02:17:40.156Z,7.50
2022-11-23T02:20:28.135Z,7.50
2022-11-23T02:23:19.870Z,7.50
2022-11-23T02:26:10.487Z,7.60
2022-11-23T02:29:01.826Z,7.50
2022-11-23T02:31:49.692Z,7.50
2022-11-23T02:34:37.694Z,7.50
2022-11-23T02:37:26.234Z,7.50
2022-11-23T02:40:21.111Z,7.50
2022-11-23T02:43:10.379Z,7.50
2022-11-23T02:45:59.052Z,7.50
2022-11-23T02:48:46.890Z,7.50
2022-11-23T02:51:34.767Z,7.50
2022-11-23T02:54:22.697Z,7.50
2022-11-23T02:57:10.525Z,7.40
2022-11-23T02:59:59.761Z,7.40
2022-11-23T03:02:47.679Z,7.40
2022-11-23T03:05:35.535Z,7.40
2022-11-23T03:08:23.409Z,7.40
2022-11-23T03:11:11.270Z,7.50
2022-11-23T03:13:59.206Z,7.50
2022-11-23T03:16:48.436Z,7.50
2022-11-23T03:19:36.524Z,7.40
2022-11-23T03:22:24.344Z,7.40
2022-11-23T03:25:12.232Z,7.40
2022-11-23T03:28:00.103Z,7.50
2022-11-23T03:30:48.069Z,7.40
2022-11-23T03:33:37.312Z,7.50
2022-11-23T03:36:25.211Z,7.50
2022-11-23T03:39:13.103Z,7.50
2022-11-23T03:42:00.953Z,7.40
2022-11-23T03:44:48.823Z,7.40
2022-11-23T03:47:37.203Z,7.40
2022-11-23T03:50:26.531Z,7.40
2022-11-23T03:53:14.498Z,7.40
2022-11-23T03:56:02.507Z,7.40
2022-11-23T03:58:50.491Z,7.50
2022-11-23T04:01:38.394Z,7.40
2022-11-23T04:04:26.254Z,7.40
2022-11-23T04:07:15.559Z,7.40
2022-11-23T04:10:03.547Z,7.40
2022-11-23T04:12:51.985Z,7.50
2022-11-23T04:15:39.865Z,7.50
2022-11-23T04:18:27.826Z,7.50
2022-11-23T04:21:15.675Z,7.40
2022-11-23T04:24:05.248Z,7.40
2022-11-23T04:26:53.093Z,7.40
2022-11-23T04:29:40.944Z,7.40
2022-11-23T04:32:28.847Z,7.40
2022-11-23T04:35:16.790Z,7.40
2022-11-23T04:38:04.676Z,7.40
2022-11-23T04:40:53.997Z,7.30
2022-11-23T04:43:41.917Z,7.50
2022-11-23T04:46:29.817Z,7.40
2022-11-23T04:49:17.940Z,7.40
2022-11-23T04:52:06.163Z,7.40
2022-11-23T04:54:54.051Z,7.40
2022-11-23T04:57:43.276Z,7.40
2022-11-23T05:00:31.203Z,7.40
2022-11-23T05:03:19.125Z,7.40
2022-11-23T05:06:07.419Z,7.50
2022-11-23T05:08:55.295Z,7.40
2022-11-23T05:11:43.135Z,7.50
2022-11-23T05:14:32.362Z,7.40
2022-11-23T05:17:20.210Z,7.50
2022-11-23T05:20:08.601Z,7.50
2022-11-23T05:22:56.580Z,7.40
2022-11-23T05:25:45.012Z,7.40
2022-11-23T05:28:41.463Z,7.50
2022-11-23T05:31:31.691Z,7.50
2022-11-23T05:34:20.208Z,7.50
2022-11-23T05:37:09.623Z,7.50
2022-11-23T05:39:59.240Z,7.40
2022-11-23T05:42:47.823Z,7.40
2022-11-23T05:45:36.734Z,7.50
2022-11-23T05:48:26.346Z,7.50
2022-11-23T05:51:16.248Z,7.50
2022-11-23T05:54:05.073Z,7.50
2022-11-23T05:56:53.384Z,7.50
2022-11-23T05:59:41.540Z,7.50
2022-11-23T06:02:29.581Z,7.50
2022-11-23T06:05:19.745Z,7.50
2022-11-23T06:08:08.548Z,7.50
2022-11-23T06:10:57.023Z,7.50
2022-11-23T06:13:47.513Z,7.50
2022-11-23T06:16:36.095Z,7.50
2022-11-23T06:19:24.715Z,7.50
2022-11-23T06:22:15.709Z,7.50
2022-11-23T06:25:03.722Z,7.50
2022-11-23T06:27:55.816Z,7.50
2022-11-23T06:30:43.710Z,7.50
2022-11-23T06:33:31.602Z,7.50
2022-11-23T06:36:19.727Z,7.50
2022-11-23T06:39:08.986Z,7.50
2022-11-23T06:42:10.789Z,7.50
2022-11-23T06:45:05.813Z,7.50
2022-11-23T06:47:55.239Z,7.50
2022-11-23T06:50:43.113Z,7.50
2022-11-23T06:53:31.091Z,7.50
2022-11-23T06:56:20.396Z,7.50
2022-11-23T06:59:08.341Z,7.50
2022-11-23T07:01:56.203Z,7.60
2022-11-23T07:04:44.116Z,7.50
2022-11-23T07:07:32.228Z,7.50
2022-11-23T07:10:20.515Z,7.60
2022-11-23T07:13:10.956Z,7.60
2022-11-23T07:15:59.568Z,7.60
2022-11-23T07:18:47.477Z,7.50
2022-11-23T07:21:35.389Z,7.60
2022-11-23T07:24:23.268Z,7.60
2022-11-23T07:27:11.780Z,7.60
2022-11-23T07:30:01.066Z,7.60
2022-11-23T07:32:48.973Z,7.50
2022-11-23T07:35:37.410Z,7.60
2022-11-23T07:38:25.329Z,7.60
2022-11-23T07:41:13.253Z,7.60
2022-11-23T07:44:01.155Z,7.60
2022-11-23T07:46:51.678Z,7.70
2022-11-23T07:49:39.608Z,7.60
2022-11-23T07:52:27.546Z,7.70
2022-11-23T07:55:15.659Z,7.60
2022-11-23T07:58:04.305Z,7.70
2022-11-23T08:00:52.184Z,7.70
2022-11-23T08:03:41.615Z,7.70
2022-11-23T08:06:30.066Z,7.70
2022-11-23T08:09:17.936Z,7.70
2022-11-23T08:12:06.302Z,7.70
2022-11-23T08:14:54.262Z,7.80
2022-11-23T08:17:42.123Z,7.70
2022-11-23T08:20:31.872Z,7.70
2022-11-23T08:23:20.126Z,7.80
2022-11-23T08:26:13.440Z,7.80
2022-11-23T08:29:01.834Z,7.80
2022-11-23T08:31:49.699Z,7.80
2022-11-23T08:34:37.591Z,7.80
2022-11-23T08:37:26.850Z,7.90
2022-11-23T08:40:17.407Z,7.80
2022-11-23T08:43:07.621Z,7.80
2022-11-23T08:45:58.897Z,7.90
2022-11-23T08:48:51.312Z,7.90
2022-11-23T08:51:39.310Z,8.00
2022-11-23T08:54:28.590Z,8.00
2022-11-23T08:57:16.490Z,8.00
2022-11-23T09:00:04.772Z,8.00
2022-11-23T09:02:52.659Z,8.00
2022-11-23T09:05:40.626Z,8.10
2022-11-23T09:08:28.555Z,8.10
2022-11-23T09:11:19.420Z,8.10
2022-11-23T09:14:07.379Z,8.10
2022-11-23T09:16:55.372Z,8.10
2022-11-23T09:19:43.293Z,8.10
2022-11-23T09:22:31.424Z,8.10
2022-11-23T09:25:19.783Z,8.20
2022-11-23T09:28:09.066Z,8.20
2022-11-23T09:30:57.378Z,8.20
2022-11-23T09:33:46.555Z,8.20
2022-11-23T09:36:34.447Z,8.30
2022-11-23T09:39:22.293Z,8.40
2022-11-23T09:42:23.411Z,8.40
2022-11-23T09:45:17.444Z,8.50
2022-11-23T09:48:18.853Z,8.40
2022-11-23T09:51:12.963Z,8.50
2022-11-23T09:54:02.344Z,8.60
2022-11-23T09:56:51.418Z,8.60
2022-11-23T09:59:41.943Z,8.60
2022-11-23T10:02:33.189Z,8.60
2022-11-23T10:05:22.262Z,8.70
2022-11-23T10:08:14.237Z,8.70
2022-11-23T10:11:07.331Z,8.60
2022-11-23T10:14:00.944Z,8.70
2022-11-23T10:16:52.006Z,8.70
2022-11-23T10:19:48.842Z,8.60
2022-11-23T10:22:39.426Z,8.60
2022-11-23T10:25:28.329Z,8.60
2022-11-23T10:28:18.308Z,8.60
2022-11-23T10:31:12.303Z,8.70
2022-11-23T10:34:04.690Z,8.70
2022-11-23T10:36:53.920Z,8.80
2022-11-23T10:39:41.883Z,8.80
2022-11-23T10:42:32.078Z,8.80
2022-11-23T10:45:20.798Z,8.80
2022-11-23T10:48:08.759Z,8.80
2022-11-23T10:51:15.563Z,8.80
2022-11-23T10:54:06.287Z,8.80
2022-11-23T10:56:55.023Z,8.90
2022-11-23T10:59:43.011Z,8.90
2022-11-23T11:02:39.107Z,8.90
2022-11-23T11:08:50.457Z,8.90
2022-11-23T11:11:40.666Z,8.90
2022-11-23T11:14:31.440Z,9.00
2022-11-23T11:17:31.468Z,9.10
2022-11-23T11:20:31.439Z,9.20
2022-11-23T11:23:21.221Z,9.30
2022-11-23T11:26:11.261Z,9.30
2022-11-23T11:29:02.082Z,9.40
2022-11-23T11:31:53.326Z,9.40
2022-11-23T11:34:44.852Z,9.40
2022-11-23T11:37:34.823Z,9.40
2022-11-23T11:40:24.663Z,9.40
2022-11-23T11:43:14.550Z,9.40
2022-11-23T11:46:28.032Z,9.50
2022-11-23T11:49:16.667Z,9.50
2022-11-23T11:52:07.470Z,9.50
2022-11-23T11:55:00.244Z,9.60
2022-11-23T11:57:50.022Z,9.60
2022-11-23T12:00:44.718Z,9.60
2022-11-23T12:03:39.228Z,9.70
2022-11-23T12:06:29.560Z,9.70
2022-11-23T12:09:19.517Z,9.80
2022-11-23T12:12:10.406Z,9.80
2022-11-23T12:14:58.831Z,9.70
2022-11-23T12:17:56.292Z,9.70
2022-11-23T12:20:52.255Z,9.70
2022-11-23T12:23:46.366Z,9.70
2022-11-23T12:26:41.987Z,9.70
2022-11-23T12:29:41.758Z,9.70
2022-11-23T12:32:35.140Z,9.80
2022-11-23T12:35:32.230Z,9.80
2022-11-23T12:38:25.915Z,9.80
2022-11-23T12:41:24.278Z,9.80
2022-11-23T12:44:27.018Z,9.90
2022-11-23T12:47:23.739Z,9.90
2022-11-23T12:50:17.718Z,9.90
2022-11-23T12:53:13.208Z,9.80
2022-11-23T12:56:07.409Z,9.90
2022-11-23T12:58:56.335Z,9.90
2022-11-23T13:01:47.156Z,9.80
2022-11-23T13:04:45.168Z,9.90
2022-11-23T13:07:50.720Z,9.90
2022-11-23T13:10:49.229Z,10.00
2022-11-23T13:13:49.045Z,10.00
2022-11-23T13:16:41.374Z,9.90
2022-11-23T13:19:37.369Z,9.90
2022-11-23T13:22:25.585Z,9.90
2022-11-23T13:25:21.808Z,9.80
2022-11-23T13:28:24.533Z,9.80
2022-11-23T13:31:23.681Z,9.80
2022-11-23T13:34:26.633Z,9.80
2022-11-23T13:37:14.637Z,9.70
2022-11-23T13:40:04.380Z,9.70
2022-11-23T13:42:52.561Z,9.70
2022-11-23T13:45:40.473Z,9.70
2022-11-23T13:51:38.894Z,9.60
2022-11-23T13:54:26.781Z,9.50
2022-11-23T13:57:14.887Z,9.50
2022-11-23T14:00:21.508Z,9.50
2022-11-23T14:03:28.190Z,9.50
2022-11-23T14:06:21.596Z,9.40
2022-11-23T14:09:13.635Z,9.50
2022-11-23T14:12:04.517Z,9.40
2022-11-23T14:14:56.501Z,9.40
2022-11-23T14:17:51.240Z,9.40
2022-11-23T14:20:50.679Z,9.40
2022-11-23T14:23:59.597Z,9.40
2022-11-23T14:27:04.223Z,9.40
2022-11-23T14:30:07.797Z,9.30
2022-11-23T14:33:03.728Z,9.30
2022-11-23T14:35:56.009Z,9.30
2022-11-23T14:38:58.814Z,9.20
2022-11-23T14:41:46.737Z,9.20
2022-11-23T14:44:38.813Z,9.20
2022-11-23T14:47:28.028Z,9.20
2022-11-23T14:50:23.362Z,9.20
2022-11-23T14:53:12.053Z,9.10
2022-11-23T14:56:00.237Z,9.10
2022-11-23T14:58:48.269Z,9.00
2022-11-23T15:01:38.355Z,8.90
2022-11-23T15:04:28.996Z,8.80
2022-11-23T15:07:18.934Z,8.90
2022-11-23T15:10:12.268Z,8.80
2022-11-23T15:13:03.227Z,8.80
2022-11-23T15:15:53.542Z,8.70
2022-11-23T15:18:43.029Z,8.70
2022-11-23T15:21:30.980Z,8.60
2022-11-23T15:24:23.297Z,8.50
2022-11-23T15:27:14.442Z,8.50
2022-11-23T15:30:02.557Z,8.40
2022-11-23T15:32:57.899Z,8.40
2022-11-23T15:35:47.375Z,8.30
2022-11-23T15:38:35.317Z,8.30
2022-11-23T15:41:24.213Z,8.30
2022-11-23T15:44:19.166Z,8.30
2022-11-23T15:47:07.810Z,8.20
2022-11-23T15:49:58.919Z,8.20
2022-11-23T15:52:49.033Z,8.20
2022-11-23T15:55:36.886Z,8.10
2022-11-23T15:58:25.029Z,8.10
2022-11-23T16:01:14.256Z,8.00
2022-11-23T16:04:04.665Z,8.00
2022-11-23T16:06:52.599Z,8.00
2022-11-23T16:09:51.322Z,8.00
2022-11-23T16:12:49.965Z,7.90
2022-11-23T16:15:42.277Z,7.90
2022-11-23T16:18:31.922Z,7.90
2022-11-23T16:21:20.917Z,7.90
2022-11-23T16:24:18.776Z,7.80
2022-11-23T16:27:15.059Z,7.80
2022-11-23T16:30:04.747Z,7.70
2022-11-23T16:32:52.770Z,7.70
2022-11-23T16:35:40.720Z,7.60
2022-11-23T16:38:28.576Z,7.60
2022-11-23T16:41:16.575Z,7.60
2022-11-23T16:44:11.976Z,7.50
2022-11-23T16:47:14.160Z,7.50
2022-11-23T16:50:02.522Z,7.50
2022-11-23T16:52:50.658Z,7.50
2022-11-23T16:55:43.530Z,7.50
2022-11-23T16:58:36.924Z,7.40
2022-11-23T17:01:27.447Z,7.50
2022-11-23T17:04:15.875Z,7.40
2022-11-23T17:07:03.946Z,7.40
2022-11-23T17:09:51.897Z,7.40
2022-11-23T17:12:40.854Z,7.40
2022-11-23T17:15:28.821Z,7.30
2022-11-23T17:18:19.588Z,7.30
2022-11-23T17:21:07.737Z,7.30
2022-11-23T17:23:58.845Z,7.30
2022-11-23T17:26:47.709Z,7.20
2022-11-23T17:29:40.391Z,7.20
2022-11-23T17:32:31.883Z,7.20
2022-11-23T17:35:21.552Z,7.20
2022-11-23T17:38:13.688Z,7.20
2022-11-23T17:41:01.583Z,7.20
2022-11-23T17:43:49.665Z,7.20
2022-11-23T17:46:40.581Z,7.20
2022-11-23T17:49:28.583Z,7.20
2022-11-23T17:52:21.709Z,7.30
2022-11-23T17:55:09.775Z,7.20
2022-11-23T17:57:57.627Z,7.20
2022-11-23T18:00:45.478Z,7.20
2022-11-23T18:03:33.389Z,7.20
2022-11-23T18:06:22.751Z,7.20
2022-11-23T18:09:12.632Z,7.20
2022-11-23T18:12:00.584Z,7.20
2022-11-23T18:14:48.469Z,7.20
2022-11-23T18:17:36.688Z,7.30
2022-11-23T18:20:24.624Z,7.30
2022-11-23T18:23:12.672Z,7.30
2022-11-23T18:26:03.242Z,7.30
2022-11-23T18:28:51.294Z,7.40
2022-11-23T18:31:39.341Z,7.40
2022-11-23T18:34:27.703Z,7.30
2022-11-23T18:37:15.618Z,7.40
2022-11-23T18:40:03.561Z,7.40
2022-11-23T18:42:52.861Z,7.40
2022-11-23T18:45:40.751Z,7.40
2022-11-23T18:48:28.792Z,7.40
2022-11-23T18:51:17.334Z,7.30
2022-11-23T18:54:05.399Z,7.40
2022-11-23T18:56:54.162Z,7.40
2022-11-23T18:59:57.940Z,7.40
2022-11-23T19:02:51.495Z,7.40
2022-11-23T19:05:39.399Z,7.40
2022-11-23T19:08:27.296Z,7.40
2022-11-23T19:11:19.238Z,7.40
2022-11-23T19:14:08.475Z,7.30
2022-11-23T19:16:57.739Z,7.30
2022-11-23T19:19:45.711Z,7.30
2022-11-23T19:22:33.646Z,7.30
2022-11-23T19:25:21.530Z,7.30
2022-11-23T19:28:09.418Z,7.30
2022-11-23T19:30:57.940Z,7.30
2022-11-23T19:33:48.469Z,7.30
2022-11-23T19:36:37.181Z,7.30
2022-11-23T19:39:25.134Z,7.30
2022-11-23T19:42:12.989Z,7.30
2022-11-23T19:45:01.173Z,7.30
2022-11-23T19:47:49.117Z,7.20
2022-11-23T19:50:38.356Z,7.30
2022-11-23T19:53:31.241Z,7.30
2022-11-23T19:56:20.263Z,7.30
2022-11-23T19:59:08.169Z,7.30
2022-11-23T20:01:56.027Z,7.30
2022-11-23T20:04:43.982Z,7.30
2022-11-23T20:07:33.279Z,7.30
2022-11-23T20:10:21.262Z,7.30
2022-11-23T20:13:09.341Z,7.20
2022-11-23T20:16:02.328Z,7.20
2022-11-23T20:18:52.713Z,7.30
2022-11-23T20:21:40.616Z,7.30
2022-11-23T20:24:30.016Z,7.20
2022-11-23T20:27:17.975Z,7.30
2022-11-23T20:30:06.221Z,7.20
2022-11-23T20:32:54.234Z,7.20
2022-11-23T20:35:42.162Z,7.20
2022-11-23T20:38:30.047Z,7.20
2022-11-23T20:41:20.381Z,7.20
2022-11-23T20:44:10.457Z,7.20
2022-11-23T20:47:02.999Z,7.30
2022-11-23T20:49:52.391Z,7.20
2022-11-23T20:52:40.363Z,7.20
2022-11-23T20:55:28.886Z,7.20
2022-11-23T20:58:18.520Z,7.20
2022-11-23T21:01:09.124Z,7.20
2022-11-23T21:03:58.350Z,7.10
2022-11-23T21:06:46.200Z,7.10
2022-11-23T21:09:34.324Z,7.10
2022-11-23T21:12:39.933Z,7.10
2022-11-23T21:15:29.210Z,7.10
2022-11-23T21:18:17.142Z,7.10
2022-11-23T21:21:06.313Z,7.10
2022-11-23T21:24:00.665Z,7.10
2022-11-23T21:26:52.317Z,7.10
2022-11-23T21:29:40.417Z,7.10
2022-11-23T21:32:29.777Z,7.10
2022-11-23T21:35:17.805Z,7.10
2022-11-23T21:38:05.729Z,7.10
2022-11-23T21:40:57.132Z,7.10
2022-11-23T21:43:51.461Z,7.00
2022-11-23T21:46:40.360Z,7.00
2022-11-23T21:49:29.872Z,7.10
2022-11-23T21:52:17.938Z,7.10
2022-11-23T21:55:06.202Z,7.10
2022-11-23T21:57:54.045Z,7.10
2022-11-23T22:00:42.596Z,7.10
2022-11-23T22:03:31.346Z,7.10
2022-11-23T22:06:21.055Z,7.10
2022-11-23T22:09:10.173Z,7.10
2022-11-23T22:11:58.058Z,7.10
2022-11-23T22:14:46.006Z,7.10
2022-11-23T22:17:36.219Z,7.10
2022-11-23T22:20:24.107Z,7.10
2022-11-23T22:23:13.441Z,7.10
2022-11-23T22:26:02.065Z,7.10
2022-11-23T22:28:50.756Z,7.10
2022-11-23T22:31:39.075Z,7.00
2022-11-23T22:34:30.058Z,7.00
2022-11-23T22:37:18.067Z,7.10
2022-11-23T22:40:08.397Z,7.10
2022-11-23T22:42:56.284Z,7.10
2022-11-23T22:45:44.443Z,7.10
2022-11-23T22:48:32.689Z,7.00
2022-11-23T22:51:21.240Z,7.00
2022-11-23T22:54:09.663Z,7.00
2022-11-23T22:56:58.851Z,7.00
2022-11-23T22:59:46.718Z,7.00
2022-11-23T23:02:34.754Z,7.00
2022-11-23T23:05:22.795Z,7.00
2022-11-23T23:08:10.615Z,7.00
2022-11-23T23:11:03.760Z,7.00
2022-11-23T23:13:53.117Z,6.90
2022-11-23T23:16:41.018Z,7.00
2022-11-23T23:19:29.608Z,6.90
2022-11-23T23:22:17.471Z,6.90
2022-11-23T23:25:07.884Z,6.90
2022-11-23T23:27:56.371Z,6.90
2022-11-23T23:30:45.618Z,6.90
2022-11-23T23:33:33.723Z,6.90
2022-11-23T23:36:22.460Z,7.00
2022-11-23T23:39:12.346Z,6.90
2022-11-23T23:42:00.412Z,6.90
2022-11-23T23:44:48.286Z,6.90
2022-11-23T23:47:37.611Z,6.90
2022-11-23T23:50:25.608Z,7.00
2022-11-23T23:53:13.539Z,7.00
2022-11-23T23:56:02.083Z,7.00
2022-11-23T23:58:49.954Z,7.00
